createdAt,value
2023-03-07T00:00:13.671Z,4.966125488
2023-03-07T00:01:14.602Z,4.98626709
2023-03-07T00:02:16.216Z,5.086975098
2023-03-07T00:03:17.298Z,5.1171875
2023-03-07T00:04:18.294Z,5.1171875
2023-03-07T00:05:19.346Z,5.167541504
2023-03-07T00:06:20.312Z,5.107116699
2023-03-07T00:07:21.304Z,5.086975098
2023-03-07T00:08:22.334Z,5.086975098
2023-03-07T00:09:23.304Z,5.076904297
2023-03-07T00:10:24.236Z,5.076904297
2023-03-07T00:11:25.131Z,5.006408691
2023-03-07T00:12:26.688Z,4.935913086
2023-03-07T00:13:58.269Z,4.925842285
2023-03-07T00:14:59.194Z,4.935913086
2023-03-07T00:16:00.248Z,4.956054688
2023-03-07T00:17:01.087Z,4.966125488
2023-03-07T00:18:02.049Z,4.905700684
2023-03-07T00:19:03.092Z,4.875488281
2023-03-07T00:20:04.176Z,4.86541748
2023-03-07T00:21:05.142Z,4.86541748
2023-03-07T00:22:06.192Z,4.895629883
2023-03-07T00:23:07.602Z,4.85534668
2023-03-07T00:24:08.604Z,4.86541748
2023-03-07T00:25:09.670Z,4.895629883
2023-03-07T00:26:10.853Z,4.875488281
2023-03-07T00:27:11.853Z,4.895629883
2023-03-07T00:28:12.823Z,4.895629883
2023-03-07T00:29:14.905Z,4.895629883
2023-03-07T00:30:15.975Z,4.966125488
2023-03-07T00:31:17.210Z,4.98626709
2023-03-07T00:32:18.267Z,4.966125488
2023-03-07T00:33:19.688Z,5.016479492
2023-03-07T00:34:20.805Z,5.076904297
2023-03-07T00:35:21.880Z,5.137329102
2023-03-07T00:36:22.902Z,5.167541504
2023-03-07T00:37:24.757Z,5.197753906
2023-03-07T00:38:25.760Z,5.298461914
2023-03-07T00:39:57.882Z,5.328674316
2023-03-07T00:40:58.764Z,5.36895752
2023-03-07T00:41:59.838Z,5.328674316
2023-03-07T00:43:01.654Z,5.348815918
2023-03-07T00:44:02.623Z,5.399169922
2023-03-07T00:45:03.738Z,5.419311523
2023-03-07T00:46:04.951Z,5.479736328
2023-03-07T00:47:05.961Z,5.479736328
2023-03-07T00:48:06.919Z,5.479736328
2023-03-07T00:49:07.862Z,5.489807129
2023-03-07T00:50:08.750Z,5.550231934
2023-03-07T00:51:09.874Z,5.489807129
2023-03-07T00:52:10.886Z,5.37902832
2023-03-07T00:53:12.616Z,5.328674316
2023-03-07T00:54:13.553Z,5.348815918
2023-03-07T00:55:14.709Z,5.348815918
2023-03-07T00:56:15.602Z,5.348815918
2023-03-07T00:57:16.613Z,5.298461914
2023-03-07T00:58:17.727Z,5.298461914
2023-03-07T00:59:18.672Z,5.328674316
2023-03-07T01:00:20.135Z,5.288391113
2023-03-07T01:01:21.164Z,5.318603516
2023-03-07T01:02:22.151Z,5.288391113
2023-03-07T01:03:23.729Z,5.318603516
2023-03-07T01:04:24.726Z,5.348815918
2023-03-07T01:05:25.809Z,5.399169922
2023-03-07T01:06:57.290Z,5.419311523
2023-03-07T01:07:58.306Z,5.449523926
2023-03-07T01:08:59.345Z,5.449523926
2023-03-07T01:10:01.161Z,5.419311523
2023-03-07T01:11:02.025Z,5.298461914
2023-03-07T01:12:02.868Z,5.318603516
2023-03-07T01:13:04.683Z,5.288391113
2023-03-07T01:14:05.696Z,5.288391113
2023-03-07T01:15:06.670Z,5.288391113
2023-03-07T01:16:07.585Z,5.227966309
2023-03-07T01:17:08.425Z,5.167541504
2023-03-07T01:18:09.483Z,5.036621094
2023-03-07T01:19:10.698Z,5.036621094
2023-03-07T01:20:11.614Z,5.076904297
2023-03-07T01:21:12.514Z,5.147399902
2023-03-07T01:22:13.510Z,5.187683105
2023-03-07T01:23:15.210Z,5.227966309
2023-03-07T01:24:16.265Z,5.258178711
2023-03-07T01:25:17.302Z,5.258178711
2023-03-07T01:26:18.178Z,5.318603516
2023-03-07T01:27:19.121Z,5.37902832
2023-03-07T01:28:20.085Z,5.419311523
2023-03-07T01:29:21.673Z,5.449523926
2023-03-07T01:30:22.660Z,5.479736328
2023-03-07T01:31:23.769Z,5.469665527
2023-03-07T01:32:24.489Z,5.298461914
2023-03-07T01:33:56.911Z,5.258178711
2023-03-07T01:34:58.781Z,5.288391113
2023-03-07T01:35:59.817Z,5.298461914
2023-03-07T01:37:00.642Z,5.298461914
2023-03-07T01:38:01.465Z,5.348815918
2023-03-07T01:39:02.377Z,5.37902832
2023-03-07T01:40:04.183Z,5.348815918
2023-03-07T01:41:05.143Z,5.348815918
2023-03-07T01:42:06.101Z,5.37902832
2023-03-07T01:43:07.746Z,5.288391113
2023-03-07T01:44:08.618Z,5.258178711
2023-03-07T01:45:09.557Z,5.268249512
2023-03-07T01:46:10.820Z,5.298461914
2023-03-07T01:47:11.777Z,5.288391113
2023-03-07T01:48:12.529Z,5.167541504
2023-03-07T01:49:13.388Z,5.147399902
2023-03-07T01:50:14.528Z,5.197753906
2023-03-07T01:51:15.554Z,5.187683105
2023-03-07T01:52:16.464Z,5.227966309
2023-03-07T01:53:18.130Z,5.197753906
2023-03-07T01:54:18.971Z,5.187683105
2023-03-07T01:55:20.030Z,5.137329102
2023-03-07T01:56:20.947Z,5.086975098
2023-03-07T01:57:22.025Z,5.056762695
2023-03-07T01:58:22.938Z,5.036621094
2023-03-07T01:59:24.627Z,5.036621094
2023-03-07T02:00:26.002Z,5.016479492
2023-03-07T02:01:57.467Z,5.006408691
2023-03-07T02:02:58.563Z,5.016479492
2023-03-07T02:04:00.149Z,4.98626709
2023-03-07T02:05:00.899Z,4.956054688
2023-03-07T02:06:01.856Z,5.016479492
2023-03-07T02:07:02.841Z,5.006408691
2023-03-07T02:08:03.887Z,4.98626709
2023-03-07T02:09:04.801Z,4.966125488
2023-03-07T02:10:05.695Z,5.036621094
2023-03-07T02:11:06.624Z,5.006408691
2023-03-07T02:12:07.605Z,5.036621094
2023-03-07T02:13:09.222Z,5.076904297
2023-03-07T02:14:10.422Z,5.046691895
2023-03-07T02:15:12.062Z,5.016479492
2023-03-07T02:16:13.105Z,5.046691895
2023-03-07T02:17:14.027Z,5.076904297
2023-03-07T02:18:15.001Z,5.076904297
2023-03-07T02:19:15.978Z,5.076904297
2023-03-07T02:20:16.898Z,5.036621094
2023-03-07T02:21:17.814Z,4.966125488
2023-03-07T02:22:18.697Z,5.016479492
2023-03-07T02:23:20.147Z,5.016479492
2023-03-07T02:24:21.139Z,4.98626709
2023-03-07T02:25:22.077Z,4.966125488
2023-03-07T02:26:22.981Z,5.006408691
2023-03-07T02:27:23.831Z,5.036621094
2023-03-07T02:28:24.835Z,5.046691895
2023-03-07T02:29:57.099Z,5.036621094
2023-03-07T02:30:58.201Z,5.036621094
2023-03-07T02:31:58.987Z,4.956054688
2023-03-07T02:33:00.552Z,4.935913086
2023-03-07T02:34:02.229Z,4.935913086
2023-03-07T02:35:03.176Z,4.895629883
2023-03-07T02:36:04.166Z,4.925842285
2023-03-07T02:37:05.052Z,4.956054688
2023-03-07T02:38:05.896Z,4.966125488
2023-03-07T02:39:07.032Z,4.956054688
2023-03-07T02:40:07.908Z,4.956054688
2023-03-07T02:41:08.847Z,4.895629883
2023-03-07T02:42:09.752Z,4.86541748
2023-03-07T02:43:10.733Z,4.85534668
2023-03-07T02:44:12.649Z,4.875488281
2023-03-07T02:45:13.525Z,4.835205078
2023-03-07T02:46:14.690Z,4.825134277
2023-03-07T02:47:15.744Z,4.825134277
2023-03-07T02:48:16.557Z,4.794921875
2023-03-07T02:49:18.161Z,4.804992676
2023-03-07T02:50:19.059Z,4.774780273
2023-03-07T02:51:20.078Z,4.72442627
2023-03-07T02:52:21.048Z,4.72442627
2023-03-07T02:53:21.912Z,4.754638672
2023-03-07T02:54:23.622Z,4.825134277
2023-03-07T02:55:24.446Z,4.794921875
2023-03-07T02:56:57.164Z,4.86541748
2023-03-07T02:57:58.104Z,4.925842285
2023-03-07T02:58:58.988Z,4.98626709
2023-03-07T02:59:59.845Z,5.006408691
2023-03-07T03:01:00.853Z,5.016479492
2023-03-07T03:02:01.918Z,5.056762695
2023-03-07T03:03:03.715Z,5.107116699
2023-03-07T03:04:05.223Z,5.107116699
2023-03-07T03:05:06.231Z,5.147399902
2023-03-07T03:06:07.073Z,5.197753906
2023-03-07T03:07:08.711Z,5.258178711
2023-03-07T03:08:09.654Z,5.268249512
2023-03-07T03:09:10.697Z,5.318603516
2023-03-07T03:10:11.592Z,5.36895752
2023-03-07T03:11:12.405Z,5.399169922
2023-03-07T03:12:13.358Z,5.449523926
2023-03-07T03:13:14.342Z,5.469665527
2023-03-07T03:14:16.131Z,5.449523926
2023-03-07T03:15:16.959Z,5.469665527
2023-03-07T03:16:17.878Z,5.469665527
2023-03-07T03:17:18.756Z,5.489807129
2023-03-07T03:18:19.670Z,5.50994873
2023-03-07T03:19:20.701Z,5.50994873
2023-03-07T03:20:21.706Z,5.550231934
2023-03-07T03:21:22.556Z,5.580444336
2023-03-07T03:22:23.452Z,5.620727539
2023-03-07T03:23:24.424Z,5.671081543
2023-03-07T03:24:56.663Z,5.661010742
2023-03-07T03:25:57.506Z,5.650939941
2023-03-07T03:26:58.353Z,5.600585938
2023-03-07T03:28:00.105Z,5.550231934
2023-03-07T03:29:01.134Z,5.50994873
2023-03-07T03:30:02.187Z,5.50994873
2023-03-07T03:31:03.277Z,5.489807129
2023-03-07T03:32:04.161Z,5.479736328
2023-03-07T03:33:05.020Z,5.419311523
2023-03-07T03:34:06.741Z,5.37902832
2023-03-07T03:35:07.732Z,5.36895752
2023-03-07T03:36:08.841Z,5.298461914
2023-03-07T03:37:09.564Z,5.288391113
2023-03-07T03:38:10.630Z,5.288391113
2023-03-07T03:39:11.722Z,5.298461914
2023-03-07T03:40:12.797Z,5.268249512
2023-03-07T03:41:13.884Z,5.268249512
2023-03-07T03:42:14.760Z,5.288391113
2023-03-07T03:43:15.674Z,5.288391113
2023-03-07T03:44:17.211Z,5.238037109
2023-03-07T03:45:18.178Z,5.217895508
2023-03-07T03:46:19.217Z,5.187683105
2023-03-07T03:47:20.197Z,5.167541504
2023-03-07T03:48:21.114Z,5.107116699
2023-03-07T03:49:22.692Z,5.086975098
2023-03-07T03:50:23.734Z,5.036621094
2023-03-07T03:51:55.499Z,4.956054688
2023-03-07T03:52:56.443Z,4.956054688
2023-03-07T03:53:57.376Z,4.935913086
2023-03-07T03:54:59.201Z,4.875488281
2023-03-07T03:56:01.175Z,4.85534668
2023-03-07T03:57:02.246Z,4.85534668
2023-03-07T03:58:03.079Z,4.86541748
2023-03-07T03:59:04.108Z,4.794921875
2023-03-07T04:00:04.972Z,4.774780273
2023-03-07T04:01:05.934Z,4.754638672
2023-03-07T04:02:07.031Z,4.744567871
2023-03-07T04:03:08.753Z,4.694213867
2023-03-07T04:04:10.144Z,4.674072266
2023-03-07T04:05:11.305Z,4.674072266
2023-03-07T04:06:12.178Z,4.674072266
2023-03-07T04:07:13.180Z,4.653930664
2023-03-07T04:08:14.170Z,4.653930664
2023-03-07T04:09:15.273Z,4.643859863
2023-03-07T04:10:16.067Z,4.613647461
2023-03-07T04:11:16.975Z,4.573364258
2023-03-07T04:12:17.835Z,4.593505859
2023-03-07T04:13:18.836Z,4.573364258
2023-03-07T04:14:20.750Z,4.613647461
2023-03-07T04:15:21.635Z,4.593505859
2023-03-07T04:16:22.622Z,4.593505859
2023-03-07T04:17:23.382Z,4.502868652
2023-03-07T04:18:55.235Z,4.47265625
2023-03-07T04:19:56.115Z,4.492797852
2023-03-07T04:20:57.700Z,4.47265625
2023-03-07T04:21:58.537Z,4.462585449
2023-03-07T04:22:59.488Z,4.422302246
2023-03-07T04:24:00.586Z,4.382019043
2023-03-07T04:25:02.152Z,4.361877441
2023-03-07T04:26:03.229Z,4.34173584
2023-03-07T04:27:04.074Z,4.311523438
2023-03-07T04:28:04.893Z,4.321594238
2023-03-07T04:29:05.823Z,4.351806641
2023-03-07T04:30:06.702Z,4.351806641
2023-03-07T04:31:07.518Z,4.34173584
2023-03-07T04:32:09.222Z,4.321594238
2023-03-07T04:33:09.907Z,4.321594238
2023-03-07T04:34:10.811Z,4.291381836
2023-03-07T04:35:12.805Z,4.251098633
2023-03-07T04:36:13.824Z,4.21081543
2023-03-07T04:37:14.838Z,4.160461426
2023-03-07T04:38:15.885Z,4.110107422
2023-03-07T04:39:16.896Z,4.07989502
2023-03-07T04:40:17.895Z,4.069824219
2023-03-07T04:41:18.925Z,4.100036621
2023-03-07T04:42:19.872Z,4.110107422
2023-03-07T04:43:21.606Z,4.130249023
2023-03-07T04:44:23.346Z,4.100036621
2023-03-07T04:45:54.753Z,4.07989502
2023-03-07T04:46:55.672Z,4.059753418
2023-03-07T04:47:56.691Z,4.059753418
2023-03-07T04:48:57.600Z,4.039611816
2023-03-07T04:49:58.589Z,4.039611816
2023-03-07T04:50:59.570Z,4.069824219
2023-03-07T04:52:01.192Z,4.039611816
2023-03-07T04:53:02.256Z,4.07989502
2023-03-07T04:54:03.261Z,4.110107422
2023-03-07T04:55:05.154Z,4.140319824
2023-03-07T04:56:05.917Z,4.110107422
2023-03-07T04:57:06.830Z,4.170532227
2023-03-07T04:58:07.663Z,4.241027832
2023-03-07T04:59:08.591Z,4.261169434
2023-03-07T05:00:10.586Z,4.311523438
2023-03-07T05:01:11.524Z,4.34173584
2023-03-07T05:02:12.455Z,4.361877441
2023-03-07T05:03:13.516Z,4.34173584
2023-03-07T05:04:14.624Z,4.321594238
2023-03-07T05:05:16.238Z,4.261169434
2023-03-07T05:06:17.225Z,4.241027832
2023-03-07T05:07:18.141Z,4.21081543
2023-03-07T05:08:19.151Z,4.200744629
2023-03-07T05:09:20.189Z,4.200744629
2023-03-07T05:10:21.191Z,4.180603027
2023-03-07T05:11:22.056Z,4.160461426
2023-03-07T05:12:22.943Z,4.200744629
2023-03-07T05:13:54.555Z,4.281311035
2023-03-07T05:14:56.166Z,4.311523438
2023-03-07T05:15:57.290Z,4.351806641
2023-03-07T05:16:58.097Z,4.361877441
2023-03-07T05:17:59.012Z,4.351806641
2023-03-07T05:19:00.684Z,4.321594238
2023-03-07T05:20:01.674Z,4.311523438
2023-03-07T05:21:02.714Z,4.261169434
2023-03-07T05:22:03.515Z,4.21081543
2023-03-07T05:23:04.390Z,4.21081543
2023-03-07T05:24:05.307Z,4.21081543
2023-03-07T05:25:07.159Z,4.21081543
2023-03-07T05:26:08.740Z,4.200744629
2023-03-07T05:27:09.536Z,4.241027832
2023-03-07T05:28:10.690Z,4.21081543
2023-03-07T05:29:11.576Z,4.200744629
2023-03-07T05:30:13.173Z,4.140319824
2023-03-07T05:31:14.224Z,4.130249023
2023-03-07T05:32:15.028Z,4.110107422
2023-03-07T05:33:15.909Z,4.130249023
2023-03-07T05:34:16.750Z,4.130249023
2023-03-07T05:35:18.616Z,4.180603027
2023-03-07T05:36:19.664Z,4.21081543
2023-03-07T05:37:20.649Z,4.200744629
2023-03-07T05:38:21.542Z,4.180603027
2023-03-07T05:39:22.486Z,4.180603027
2023-03-07T05:40:54.086Z,4.130249023
2023-03-07T05:41:55.089Z,4.130249023
2023-03-07T05:42:56.140Z,4.07989502
2023-03-07T05:43:57.101Z,4.069824219
2023-03-07T05:44:58.708Z,4.069824219
2023-03-07T05:45:59.752Z,4.110107422
2023-03-07T05:47:00.748Z,4.110107422
2023-03-07T05:48:01.724Z,4.110107422
2023-03-07T05:49:02.587Z,4.059753418
2023-03-07T05:50:04.065Z,4.039611816
2023-03-07T05:51:05.036Z,4.019470215
2023-03-07T05:52:06.144Z,3.999328613
2023-03-07T05:53:07.037Z,3.999328613
2023-03-07T05:54:07.957Z,3.979187012
2023-03-07T05:55:09.652Z,3.948974609
2023-03-07T05:56:10.647Z,3.948974609
2023-03-07T05:57:11.689Z,3.928833008
2023-03-07T05:58:12.631Z,3.948974609
2023-03-07T05:59:13.552Z,3.928833008
2023-03-07T06:00:14.463Z,3.918762207
2023-03-07T06:01:16.072Z,3.898620605
2023-03-07T06:02:17.080Z,3.888549805
2023-03-07T06:03:17.894Z,3.858337402
2023-03-07T06:04:18.850Z,3.818054199
2023-03-07T06:05:20.665Z,3.807983398
2023-03-07T06:06:21.513Z,3.818054199
2023-03-07T06:07:22.594Z,3.797912598
2023-03-07T06:08:53.939Z,3.767700195
2023-03-07T06:09:54.932Z,3.747558594
2023-03-07T06:10:56.021Z,3.777770996
2023-03-07T06:11:56.764Z,3.797912598
2023-03-07T06:12:57.744Z,3.767700195
2023-03-07T06:13:58.722Z,3.717346191
2023-03-07T06:15:00.690Z,3.737487793
2023-03-07T06:16:01.608Z,3.737487793
2023-03-07T06:17:02.470Z,3.747558594
2023-03-07T06:18:03.454Z,3.747558594
2023-03-07T06:19:05.164Z,3.767700195
2023-03-07T06:20:06.206Z,3.747558594
2023-03-07T06:21:07.228Z,3.737487793
2023-03-07T06:22:08.239Z,3.717346191
2023-03-07T06:23:09.128Z,3.717346191
2023-03-07T06:24:10.425Z,3.717346191
2023-03-07T06:25:12.209Z,3.707275391
2023-03-07T06:26:13.444Z,3.717346191
2023-03-07T06:27:14.191Z,3.717346191
2023-03-07T06:28:15.179Z,3.737487793
2023-03-07T06:29:16.055Z,3.747558594
2023-03-07T06:30:17.154Z,3.777770996
2023-03-07T06:31:18.645Z,3.737487793
2023-03-07T06:32:19.621Z,3.717346191
2023-03-07T06:33:20.654Z,3.69720459
2023-03-07T06:34:21.537Z,3.69720459
2023-03-07T06:35:23.669Z,3.677062988
2023-03-07T06:36:55.245Z,3.666992188
2023-03-07T06:37:56.193Z,3.666992188
2023-03-07T06:38:57.103Z,3.677062988
2023-03-07T06:39:58.068Z,3.677062988
2023-03-07T06:40:59.070Z,3.666992188
2023-03-07T06:42:00.118Z,3.666992188
2023-03-07T06:43:01.151Z,3.626708984
2023-03-07T06:44:02.105Z,3.596496582
2023-03-07T06:45:02.993Z,3.596496582
2023-03-07T06:46:04.891Z,3.586425781
2023-03-07T06:47:05.757Z,3.616638184
2023-03-07T06:48:06.709Z,3.636779785
2023-03-07T06:49:07.773Z,3.677062988
2023-03-07T06:50:09.116Z,3.69720459
2023-03-07T06:51:10.128Z,3.636779785
2023-03-07T06:52:11.416Z,3.626708984
2023-03-07T06:53:12.474Z,3.636779785
2023-03-07T06:54:14.325Z,3.616638184
2023-03-07T06:55:15.334Z,3.626708984
2023-03-07T06:56:17.115Z,3.636779785
2023-03-07T06:57:18.041Z,3.677062988
2023-03-07T06:58:19.030Z,3.69720459
2023-03-07T06:59:20.130Z,3.707275391
2023-03-07T07:00:20.998Z,3.707275391
2023-03-07T07:01:21.952Z,3.707275391
2023-03-07T07:02:54.326Z,3.707275391
2023-03-07T07:03:55.171Z,3.747558594
2023-03-07T07:04:56.167Z,3.777770996
2023-03-07T07:05:57.596Z,3.818054199
2023-03-07T07:06:58.574Z,3.858337402
2023-03-07T07:07:59.683Z,3.838195801
2023-03-07T07:09:00.683Z,3.838195801
2023-03-07T07:10:01.778Z,3.838195801
2023-03-07T07:11:02.493Z,3.818054199
2023-03-07T07:12:03.465Z,3.838195801
2023-03-07T07:13:04.462Z,3.838195801
2023-03-07T07:14:05.471Z,3.797912598
2023-03-07T07:15:06.538Z,3.777770996
2023-03-07T07:16:08.166Z,3.797912598
2023-03-07T07:17:09.068Z,3.767700195
2023-03-07T07:18:11.506Z,3.797912598
2023-03-07T07:19:11.474Z,3.807983398
2023-03-07T07:20:12.512Z,3.807983398
2023-03-07T07:21:13.489Z,3.818054199
2023-03-07T07:22:14.368Z,3.818054199
2023-03-07T07:23:16.226Z,3.818054199
2023-03-07T07:24:17.260Z,3.818054199
2023-03-07T07:25:19.231Z,3.818054199
2023-03-07T07:26:21.179Z,3.818054199
2023-03-07T07:27:22.515Z,3.818054199
2023-03-07T07:28:53.995Z,3.858337402
2023-03-07T07:29:55.008Z,3.838195801
2023-03-07T07:30:56.732Z,3.838195801
2023-03-07T07:31:57.764Z,3.858337402
2023-03-07T07:32:58.767Z,3.898620605
2023-03-07T07:33:59.660Z,3.928833008
2023-03-07T07:35:00.685Z,3.928833008
2023-03-07T07:36:02.770Z,3.948974609
2023-03-07T07:37:03.764Z,3.928833008
2023-03-07T07:38:04.707Z,3.928833008
2023-03-07T07:39:05.664Z,3.918762207
2023-03-07T07:40:06.716Z,3.888549805
2023-03-07T07:41:08.740Z,3.918762207
2023-03-07T07:42:09.694Z,3.948974609
2023-03-07T07:43:10.841Z,4.019470215
2023-03-07T07:44:11.772Z,4.059753418
2023-03-07T07:45:13.714Z,4.07989502
2023-03-07T07:46:15.718Z,4.100036621
2023-03-07T07:47:16.673Z,4.07989502
2023-03-07T07:48:17.587Z,4.100036621
2023-03-07T07:49:18.826Z,4.130249023
2023-03-07T07:50:20.208Z,4.130249023
2023-03-07T07:51:21.348Z,4.160461426
2023-03-07T07:52:53.067Z,4.170532227
2023-03-07T07:53:54.080Z,4.180603027
2023-03-07T07:54:55.145Z,4.170532227
2023-03-07T07:55:56.721Z,4.180603027
2023-03-07T07:56:57.749Z,4.180603027
2023-03-07T07:57:58.640Z,4.200744629
2023-03-07T07:58:59.624Z,4.170532227
2023-03-07T08:00:00.513Z,4.160461426
2023-03-07T08:01:01.665Z,4.110107422
2023-03-07T08:02:02.767Z,4.110107422
2023-03-07T08:03:04.851Z,4.07989502
2023-03-07T08:04:05.933Z,4.07989502
2023-03-07T08:05:07.231Z,4.100036621
2023-03-07T08:06:09.218Z,4.069824219
2023-03-07T08:07:11.299Z,4.069824219
2023-03-07T08:08:12.469Z,4.100036621
2023-03-07T08:09:14.762Z,4.100036621
2023-03-07T08:10:16.041Z,4.160461426
2023-03-07T08:11:17.189Z,4.200744629
2023-03-07T08:12:18.321Z,4.241027832
2023-03-07T08:13:19.673Z,4.261169434
2023-03-07T08:14:20.694Z,4.321594238
2023-03-07T08:15:22.414Z,4.422302246
2023-03-07T08:16:54.774Z,4.462585449
2023-03-07T08:17:55.971Z,4.492797852
2023-03-07T08:18:57.036Z,4.492797852
2023-03-07T08:20:00.968Z,4.512939453
2023-03-07T08:20:59.614Z,4.543151855
2023-03-07T08:22:01.753Z,4.573364258
2023-03-07T08:23:02.815Z,4.613647461
2023-03-07T08:24:03.850Z,4.643859863
2023-03-07T08:25:05.213Z,4.623718262
2023-03-07T08:26:07.301Z,4.623718262
2023-03-07T08:27:08.549Z,4.643859863
2023-03-07T08:28:09.558Z,4.653930664
2023-03-07T08:29:10.916Z,4.643859863
2023-03-07T08:30:12.333Z,4.643859863
2023-03-07T08:31:25.042Z,4.653930664
2023-03-07T08:33:06.091Z,4.653930664
2023-03-07T08:34:06.818Z,4.684143066
2023-03-07T08:35:08.751Z,4.744567871
2023-03-07T08:36:10.025Z,4.794921875
2023-03-07T08:37:12.138Z,4.825134277
2023-03-07T08:38:12.827Z,4.85534668
2023-03-07T08:39:13.540Z,4.905700684
2023-03-07T08:40:14.447Z,4.98626709
2023-03-07T08:41:15.328Z,5.036621094
2023-03-07T08:42:17.188Z,5.046691895
2023-03-07T08:43:17.847Z,5.076904297
2023-03-07T08:44:18.691Z,5.137329102
2023-03-07T08:45:22.771Z,5.197753906
2023-03-07T08:46:53.786Z,5.227966309
2023-03-07T08:47:54.733Z,5.227966309
2023-03-07T08:48:55.664Z,5.238037109
2023-03-07T08:49:56.600Z,5.268249512
2023-03-07T08:50:57.629Z,5.298461914
2023-03-07T08:51:58.648Z,5.318603516
2023-03-07T08:52:59.638Z,5.348815918
2023-03-07T08:54:00.526Z,5.37902832
2023-03-07T08:55:01.466Z,5.37902832
2023-03-07T08:56:02.443Z,5.419311523
2023-03-07T08:57:04.318Z,5.439453125
2023-03-07T08:58:05.250Z,5.439453125
2023-03-07T08:59:06.179Z,5.449523926
2023-03-07T09:00:07.605Z,5.439453125
2023-03-07T09:01:08.602Z,5.439453125
2023-03-07T09:02:09.698Z,5.419311523
2023-03-07T09:03:10.685Z,5.409240723
2023-03-07T09:04:11.597Z,5.348815918
2023-03-07T09:05:13.112Z,5.36895752
2023-03-07T09:06:14.089Z,5.37902832
2023-03-07T09:07:15.860Z,5.399169922
2023-03-07T09:08:16.916Z,5.409240723
2023-03-07T09:09:18.667Z,5.419311523
2023-03-07T09:10:19.550Z,5.479736328
2023-03-07T09:11:20.456Z,5.550231934
2023-03-07T09:12:52.549Z,5.590515137
2023-03-07T09:13:53.494Z,5.650939941
2023-03-07T09:14:54.376Z,5.701293945
2023-03-07T09:15:55.340Z,5.701293945
2023-03-07T09:16:57.305Z,5.701293945
2023-03-07T09:17:58.300Z,5.741577148
2023-03-07T09:19:00.186Z,5.771789551
2023-03-07T09:20:01.133Z,5.812072754
2023-03-07T09:21:02.190Z,5.842285156
2023-03-07T09:22:03.113Z,5.872497559
2023-03-07T09:23:04.159Z,5.922851563
2023-03-07T09:24:05.109Z,5.963134766
2023-03-07T09:25:06.107Z,6.01348877
2023-03-07T09:26:07.657Z,6.063842773
2023-03-07T09:27:08.630Z,6.114196777
2023-03-07T09:28:10.544Z,6.134338379
2023-03-07T09:29:11.680Z,6.134338379
2023-03-07T09:30:12.783Z,6.164550781
2023-03-07T09:31:13.664Z,6.174621582
2023-03-07T09:32:15.059Z,6.194763184
2023-03-07T09:33:16.149Z,6.235046387
2023-03-07T09:34:17.139Z,6.295471191
2023-03-07T09:35:18.191Z,6.315612793
2023-03-07T09:36:19.607Z,6.345825195
2023-03-07T09:37:21.134Z,6.376037598
2023-03-07T09:38:53.353Z,6.386108398
2023-03-07T09:39:54.205Z,6.386108398
2023-03-07T09:40:55.157Z,6.376037598
2023-03-07T09:41:56.072Z,6.355895996
2023-03-07T09:42:56.999Z,6.355895996
2023-03-07T09:43:58.127Z,6.376037598
2023-03-07T09:44:58.910Z,6.396179199
2023-03-07T09:45:59.940Z,6.416320801
2023-03-07T09:47:01.645Z,6.426391602
2023-03-07T09:48:02.541Z,6.416320801
2023-03-07T09:49:03.633Z,6.345825195
2023-03-07T09:50:04.657Z,6.355895996
2023-03-07T09:51:11.712Z,6.345825195
2023-03-07T09:52:07.536Z,6.376037598
2023-03-07T09:53:07.336Z,6.376037598
2023-03-07T09:54:08.381Z,6.396179199
2023-03-07T09:55:09.348Z,6.446533203
2023-03-07T09:56:10.490Z,6.426391602
2023-03-07T09:57:11.431Z,6.456604004
2023-03-07T09:58:12.296Z,6.496887207
2023-03-07T09:59:22.435Z,6.527099609
2023-03-07T10:00:14.284Z,6.53717041
2023-03-07T10:01:15.345Z,6.547241211
2023-03-07T10:02:16.256Z,6.547241211
2023-03-07T10:03:17.100Z,6.577453613
2023-03-07T10:04:18.285Z,6.597595215
2023-03-07T10:05:19.228Z,6.607666016
2023-03-07T10:06:20.250Z,6.627807617
2023-03-07T10:07:51.582Z,6.647949219
2023-03-07T10:08:52.492Z,6.678161621
2023-03-07T10:09:53.465Z,6.708374023
2023-03-07T10:10:54.424Z,6.728515625
2023-03-07T10:11:55.409Z,6.728515625
2023-03-07T10:12:56.377Z,6.718444824
2023-03-07T10:13:57.351Z,6.718444824
2023-03-07T10:14:58.358Z,6.728515625
2023-03-07T10:15:59.175Z,6.748657227
2023-03-07T10:17:00.195Z,6.758728027
2023-03-07T10:18:02.242Z,6.758728027
2023-03-07T10:19:01.798Z,6.778869629
2023-03-07T10:20:02.731Z,6.809082031
2023-03-07T10:21:03.497Z,6.809082031
2023-03-07T10:22:04.281Z,6.819152832
2023-03-07T10:23:05.153Z,6.819152832
2023-03-07T10:24:05.977Z,6.859436035
2023-03-07T10:25:06.827Z,6.869506836
2023-03-07T10:26:07.748Z,6.869506836
2023-03-07T10:27:08.700Z,6.869506836
2023-03-07T10:28:09.597Z,6.859436035
2023-03-07T10:29:10.722Z,6.869506836
2023-03-07T10:30:11.575Z,6.899719238
2023-03-07T10:31:12.396Z,6.929931641
2023-03-07T10:32:13.339Z,6.899719238
2023-03-07T10:33:14.159Z,6.819152832
2023-03-07T10:34:25.849Z,6.819152832
2023-03-07T10:35:15.936Z,6.809082031
2023-03-07T10:36:16.749Z,6.869506836
2023-03-07T10:37:17.631Z,6.869506836
2023-03-07T10:38:18.472Z,6.899719238
2023-03-07T10:39:19.334Z,6.929931641
2023-03-07T10:40:20.804Z,6.990356445
2023-03-07T10:41:51.970Z,7.010498047
2023-03-07T10:42:52.826Z,7.070922852
2023-03-07T10:43:53.650Z,7.121276855
2023-03-07T10:44:54.500Z,7.111206055
2023-03-07T10:45:55.493Z,7.111206055
2023-03-07T10:46:56.749Z,7.121276855
2023-03-07T10:47:57.083Z,7.141418457
2023-03-07T10:48:57.873Z,7.141418457
2023-03-07T10:49:58.707Z,7.18170166
2023-03-07T10:50:59.578Z,7.191772461
2023-03-07T10:52:00.377Z,7.211914063
2023-03-07T10:53:01.204Z,7.232055664
2023-03-07T10:54:02.016Z,7.262268066
2023-03-07T10:55:02.853Z,7.292480469
2023-03-07T10:56:03.701Z,7.292480469
2023-03-07T10:57:04.542Z,7.242126465
2023-03-07T10:58:05.314Z,7.262268066
2023-03-07T10:59:06.119Z,7.292480469
2023-03-07T11:00:06.901Z,7.322692871
2023-03-07T11:01:07.862Z,7.342834473
2023-03-07T11:02:08.649Z,7.342834473
2023-03-07T11:03:09.439Z,7.342834473
2023-03-07T11:04:10.520Z,7.362976074
2023-03-07T11:05:11.412Z,7.393188477
2023-03-07T11:06:12.153Z,7.44354248
2023-03-07T11:07:13.046Z,7.473754883
2023-03-07T11:08:13.896Z,7.503967285
2023-03-07T11:09:14.705Z,7.483825684
2023-03-07T11:10:15.645Z,7.503967285
2023-03-07T11:11:16.533Z,7.514038086
2023-03-07T11:12:17.370Z,7.544250488
2023-03-07T11:13:18.181Z,7.584533691
2023-03-07T11:14:19.150Z,7.624816895